Time;durP1;ratioP1;P1;durP2;ratioP2;P2;SDS_P1;SDS_P2;PMS_P1;PMS_P2;Temp;Humidity;BMP_temperature;BMP_pressure;BME280_temperature;BME280_humidity;BME280_pressure;Samples;Min_cycle;Max_cycle;Signal;HPM_P1;HPM_P2
2023/01/11 00:01:19;;;;;;;13.63;4.43;;;5.10;99.90;;;;;;5032848;28;20175;-69
2023/01/11 00:03:44;;;;;;;9.45;3.88;;;5.10;99.90;;;;;;5026728;28;20036;-69
2023/01/11 00:06:10;;;;;;;7.68;3.42;;;5.20;99.90;;;;;;5029498;28;20888;-69
2023/01/11 00:08:36;;;;;;;17.92;4.82;;;5.30;99.90;;;;;;5032710;28;20030;-69
2023/01/11 00:11:02;;;;;;;16.60;3.55;;;5.30;99.80;;;;;;5033994;28;20033;-70
2023/01/11 00:13:28;;;;;;;15.85;4.78;;;5.30;99.70;;;;;;5024344;28;20037;-70
2023/01/11 00:15:54;;;;;;;9.15;3.80;;;5.30;99.70;;;;;;5031008;28;20029;-69
2023/01/11 00:18:19;;;;;;;14.45;3.95;;;5.40;99.60;;;;;;5026748;28;20040;-69
2023/01/11 00:20:45;;;;;;;12.30;3.67;;;5.40;99.60;;;;;;5029651;28;20033;-69
2023/01/11 00:23:11;;;;;;;15.90;3.33;;;5.40;99.60;;;;;;5030446;28;20091;-69
2023/01/11 00:25:36;;;;;;;10.80;3.35;;;5.40;99.50;;;;;;5029357;28;20083;-70
2023/01/11 00:28:02;;;;;;;11.35;3.63;;;5.40;99.40;;;;;;5027038;28;20030;-70
2023/01/11 00:30:27;;;;;;;14.00;3.20;;;5.40;99.40;;;;;;5030301;28;20413;-70
2023/01/11 00:32:57;;;;;;;11.18;3.42;;;5.40;99.50;;;;;;5030780;28;20041;-70
2023/01/11 00:35:24;;;;;;;11.63;3.65;;;5.50;99.50;;;;;;5024029;28;20046;-70
2023/01/11 00:37:51;;;;;;;11.25;3.30;;;5.50;99.50;;;;;;5027233;28;20040;-70
2023/01/11 00:40:17;;;;;;;16.85;3.35;;;5.50;99.50;;;;;;5030724;28;20061;-69
2023/01/11 00:48:10;;;;;;;8.50;2.92;;;5.60;99.70;;;;;;5028359;28;20036;-69
2023/01/11 00:50:37;;;;;;;12.65;3.33;;;5.60;99.60;;;;;;5027717;28;20033;-70
2023/01/11 00:53:05;;;;;;;9.00;3.10;;;5.70;99.50;;;;;;5025762;28;20063;-70
2023/01/11 00:55:30;;;;;;;8.63;2.55;;;5.70;99.50;;;;;;5030278;28;20040;-69
2023/01/11 00:57:56;;;;;;;5.10;2.22;;;5.70;99.50;;;;;;5031610;28;20037;-69
2023/01/11 01:00:22;;;;;;;12.18;2.70;;;5.70;99.50;;;;;;5026300;28;20321;-70
2023/01/11 01:02:49;;;;;;;11.20;2.75;;;5.70;99.60;;;;;;5033263;28;20038;-69
2023/01/11 01:05:15;;;;;;;10.13;2.80;;;5.80;99.70;;;;;;5029373;28;20583;-69
2023/01/11 01:07:41;;;;;;;11.27;2.72;;;5.80;99.60;;;;;;5024361;28;20034;-69
2023/01/11 01:10:07;;;;;;;4.53;2.25;;;5.90;99.70;;;;;;5027317;28;20105;-69
2023/01/11 01:15:18;;;;;;;7.68;2.33;;;5.90;99.60;;;;;;5028364;28;20044;-69
2023/01/11 01:17:45;;;;;;;9.75;2.22;;;6.00;99.70;;;;;;5028465;28;20409;-70
2023/01/11 01:20:10;;;;;;;9.32;2.38;;;6.10;99.50;;;;;;5028062;28;20121;-69
2023/01/11 01:22:36;;;;;;;7.32;2.08;;;6.10;99.40;;;;;;5029862;28;20080;-69
2023/01/11 01:25:01;;;;;;;5.55;2.40;;;6.10;99.30;;;;;;5030182;28;20067;-70
2023/01/11 01:27:27;;;;;;;7.28;2.33;;;6.20;99.20;;;;;;5031266;28;20037;-69
2023/01/11 01:29:52;;;;;;;6.22;2.35;;;6.20;99.10;;;;;;5030474;28;20036;-69
2023/01/11 01:32:18;;;;;;;6.03;2.53;;;6.20;99.10;;;;;;5029284;28;20493;-68
2023/01/11 01:34:43;;;;;;;4.15;1.75;;;6.20;99.00;;;;;;5018096;28;20470;-70
2023/01/11 01:37:10;;;;;;;7.60;2.00;;;6.20;99.00;;;;;;5026655;28;20044;-69
2023/01/11 01:39:35;;;;;;;6.05;1.85;;;6.20;98.90;;;;;;5028469;28;20039;-69
2023/01/11 01:42:01;;;;;;;4.82;1.80;;;6.20;99.00;;;;;;5029083;28;20401;-70
2023/01/11 01:44:51;;;;;;;6.10;1.92;;;6.20;99.00;;;;;;5030437;28;20155;-69
2023/01/11 01:47:21;;;;;;;6.80;1.85;;;6.20;99.10;;;;;;5029744;28;20041;-69
2023/01/11 01:49:46;;;;;;;6.07;1.95;;;6.20;99.20;;;;;;5024775;28;20036;-69
2023/01/11 01:52:12;;;;;;;5.80;2.20;;;6.20;99.20;;;;;;5026838;28;20034;-69
2023/01/11 01:54:41;;;;;;;6.60;2.17;;;6.10;99.40;;;;;;5030637;28;20032;-69
2023/01/11 01:57:20;;;;;;;7.35;2.20;;;6.10;99.50;;;;;;5030736;28;20030;-69
2023/01/11 01:59:50;;;;;;;4.97;2.08;;;6.10;99.60;;;;;;5029315;28;20064;-69
2023/01/11 02:02:16;;;;;;;2.50;1.48;;;6.10;99.70;;;;;;5024227;28;20512;-70
2023/01/11 02:04:44;;;;;;;3.80;1.92;;;6.10;99.80;;;;;;5021335;28;20030;-69
2023/01/11 02:07:16;;;;;;;9.18;2.03;;;6.10;99.80;;;;;;5023940;28;20021;-70
2023/01/11 02:09:55;;;;;;;3.72;1.77;;;6.10;99.90;;;;;;5030869;28;20378;-70
2023/01/11 02:12:23;;;;;;;7.28;1.92;;;6.10;99.90;;;;;;5023499;28;20171;-70
2023/01/11 02:14:51;;;;;;;3.75;2.17;;;6.10;99.90;;;;;;5029861;28;20102;-70
2023/01/11 02:17:17;;;;;;;7.53;1.80;;;6.20;99.90;;;;;;5023428;28;21127;-70
2023/01/11 02:20:10;;;;;;;4.68;1.88;;;6.20;99.90;;;;;;5015724;28;20122;-70
2023/01/11 02:22:57;;;;;;;6.82;1.85;;;6.20;99.90;;;;;;5021411;28;20463;-69
2023/01/11 02:25:44;;;;;;;3.15;1.77;;;6.20;99.90;;;;;;5030241;28;20037;-70
2023/01/11 02:28:34;;;;;;;5.78;2.22;;;6.20;99.90;;;;;;5028577;28;20033;-71
2023/01/11 02:31:22;;;;;;;4.72;1.80;;;6.20;99.90;;;;;;5026834;28;20041;-70
2023/01/11 02:33:56;;;;;;;5.63;2.20;;;6.20;99.90;;;;;;5022819;28;20029;-70
2023/01/11 02:36:59;;;;;;;4.85;2.20;;;6.30;99.90;;;;;;5015771;28;20044;-69
2023/01/11 02:39:59;;;;;;;2.60;1.75;;;6.30;99.90;;;;;;5027050;28;20041;-70
2023/01/11 02:46:00;;;;;;;5.18;2.05;;;6.30;99.90;;;;;;5026230;28;20136;-70
2023/01/11 02:48:46;;;;;;;4.53;2.08;;;6.30;99.90;;;;;;5026732;28;20033;-69
2023/01/11 02:51:22;;;;;;;4.47;1.75;;;6.40;99.90;;;;;;5026162;28;20038;-70
2023/01/11 02:53:55;;;;;;;5.03;1.90;;;6.30;99.90;;;;;;5024452;28;20021;-70
2023/01/11 02:56:27;;;;;;;4.25;1.90;;;6.40;99.90;;;;;;5028103;28;20046;-69
2023/01/11 02:58:55;;;;;;;4.55;1.95;;;6.40;99.90;;;;;;5027884;28;20033;-70
2023/01/11 03:01:22;;;;;;;5.70;2.15;;;6.40;99.90;;;;;;5026598;28;20036;-69
2023/01/11 03:03:49;;;;;;;3.88;2.20;;;6.40;99.90;;;;;;5027106;28;20034;-70
2023/01/11 03:06:30;;;;;;;4.43;2.15;;;6.40;99.90;;;;;;5024867;28;20109;-69
2023/01/11 03:09:10;;;;;;;3.47;1.92;;;6.40;99.90;;;;;;5029009;28;20118;-69
2023/01/11 03:15:07;;;;;;;4.38;2.13;;;6.50;99.90;;;;;;5026790;28;20113;-69
2023/01/11 03:17:39;;;;;;;2.60;1.73;;;6.50;99.90;;;;;;5024888;28;20029;-70
2023/01/11 03:20:08;;;;;;;4.22;2.08;;;6.50;99.90;;;;;;5019274;28;20355;-70
2023/01/11 03:22:49;;;;;;;5.55;1.75;;;6.50;99.90;;;;;;5026673;28;20493;-70
2023/01/11 03:25:29;;;;;;;3.72;2.00;;;6.50;99.90;;;;;;5030285;28;20459;-69
2023/01/11 03:28:05;;;;;;;2.47;1.63;;;6.50;99.90;;;;;;5025685;28;20455;-70
2023/01/11 03:30:35;;;;;;;3.25;1.95;;;6.50;99.90;;;;;;5021054;28;20072;-69
2023/01/11 03:33:07;;;;;;;3.92;1.98;;;6.50;99.90;;;;;;5027812;28;20026;-70
2023/01/11 03:35:44;;;;;;;4.30;1.98;;;6.60;99.90;;;;;;5023476;28;20129;-70
2023/01/11 03:38:19;;;;;;;4.70;2.22;;;6.60;99.90;;;;;;5021455;28;20121;-69
2023/01/11 03:40:56;;;;;;;4.72;2.45;;;6.60;99.90;;;;;;5028718;28;20029;-70
2023/01/11 03:43:24;;;;;;;5.40;2.40;;;6.60;99.90;;;;;;5028653;28;20030;-69
2023/01/11 03:45:52;;;;;;;4.00;1.92;;;6.60;99.90;;;;;;5029353;28;20025;-69
2023/01/11 03:48:51;;;;;;;7.68;2.20;;;6.60;99.90;;;;;;5029814;28;20045;-70
2023/01/11 03:51:21;;;;;;;5.28;2.17;;;6.60;99.90;;;;;;5023767;28;20390;-70
2023/01/11 03:53:49;;;;;;;5.60;2.30;;;6.60;99.90;;;;;;5022787;28;20033;-69
2023/01/11 03:56:18;;;;;;;4.88;2.60;;;6.70;99.90;;;;;;5026799;28;20042;-70
2023/01/11 03:58:44;;;;;;;3.63;2.25;;;6.70;99.90;;;;;;5035372;28;20048;-69
2023/01/11 04:01:11;;;;;;;6.00;2.22;;;6.70;99.90;;;;;;5023219;28;20037;-69
2023/01/11 04:03:36;;;;;;;5.72;2.50;;;6.70;99.90;;;;;;5031075;28;20028;-70
2023/01/11 04:06:02;;;;;;;4.95;2.78;;;6.80;99.90;;;;;;5025839;28;20045;-69
2023/01/11 04:08:29;;;;;;;5.32;2.42;;;6.80;99.90;;;;;;5027836;28;20033;-69
2023/01/11 04:10:55;;;;;;;5.00;2.50;;;6.80;99.90;;;;;;5034674;28;20570;-69
2023/01/11 04:13:21;;;;;;;6.50;2.75;;;6.80;99.90;;;;;;5033837;28;20116;-70
2023/01/11 04:15:46;;;;;;;4.55;2.65;;;6.80;99.90;;;;;;5033618;28;20042;-70
2023/01/11 04:18:11;;;;;;;5.25;3.00;;;6.90;99.90;;;;;;5030633;28;20400;-70
2023/01/11 04:20:39;;;;;;;5.70;2.42;;;6.90;99.90;;;;;;5030818;28;20084;-70
2023/01/11 04:23:06;;;;;;;6.15;2.97;;;6.90;99.90;;;;;;5030066;28;20055;-70
2023/01/11 04:25:31;;;;;;;4.53;2.70;;;6.90;99.90;;;;;;5039412;28;20415;-70
2023/01/11 04:27:57;;;;;;;7.07;2.60;;;6.90;99.90;;;;;;5029768;28;20076;-70
2023/01/11 04:30:23;;;;;;;6.25;2.90;;;7.00;99.90;;;;;;5029128;28;20441;-70
2023/01/11 04:32:48;;;;;;;3.47;2.47;;;7.00;99.90;;;;;;5028301;28;20038;-71
2023/01/11 04:35:14;;;;;;;4.25;2.78;;;7.00;99.90;;;;;;5025883;28;20489;-71
2023/01/11 04:37:39;;;;;;;4.30;2.90;;;7.00;99.90;;;;;;5030767;28;20152;-69
2023/01/11 04:40:06;;;;;;;6.18;3.10;;;7.10;99.90;;;;;;5028727;28;20079;-70
2023/01/11 04:42:31;;;;;;;4.60;2.92;;;7.00;99.90;;;;;;5029780;28;20390;-70
2023/01/11 04:44:57;;;;;;;5.05;3.20;;;7.10;99.90;;;;;;5031414;28;20037;-70
2023/01/11 04:47:23;;;;;;;4.60;2.47;;;7.10;99.90;;;;;;5030404;28;20485;-71
2023/01/11 04:49:49;;;;;;;5.25;2.80;;;7.10;99.90;;;;;;5028070;28;20042;-70
2023/01/11 04:52:16;;;;;;;4.15;2.63;;;7.10;99.90;;;;;;5026076;28;20387;-70
2023/01/11 04:54:43;;;;;;;3.92;2.83;;;7.10;99.90;;;;;;5031169;28;20025;-70
2023/01/11 04:57:13;;;;;;;4.68;2.65;;;7.20;99.90;;;;;;5028473;28;20478;-70
2023/01/11 04:59:38;;;;;;;4.60;2.40;;;7.20;99.90;;;;;;5026415;28;20040;-70
2023/01/11 05:02:04;;;;;;;5.80;2.80;;;7.20;99.90;;;;;;5026955;28;20480;-70
2023/01/11 05:04:30;;;;;;;4.97;2.70;;;7.30;99.90;;;;;;5029411;28;20034;-71
2023/01/11 05:06:55;;;;;;;4.70;2.47;;;7.30;99.90;;;;;;5029773;28;20405;-69
2023/01/11 05:09:21;;;;;;;8.55;2.67;;;7.30;99.90;;;;;;5031605;28;20351;-70
2023/01/11 05:11:46;;;;;;;4.10;2.50;;;7.30;99.90;;;;;;5024865;28;20038;-70
2023/01/11 05:14:13;;;;;;;5.65;2.90;;;7.40;99.90;;;;;;5034699;28;20039;-71
2023/01/11 05:16:38;;;;;;;3.90;2.25;;;7.40;99.90;;;;;;5016243;28;20026;-70
2023/01/11 05:19:05;;;;;;;4.13;2.28;;;7.50;99.90;;;;;;5033647;28;20091;-70
2023/01/11 05:21:36;;;;;;;4.93;2.40;;;7.40;99.90;;;;;;5029386;28;20049;-70
2023/01/11 05:24:04;;;;;;;5.28;2.40;;;7.50;99.90;;;;;;5035187;28;20037;-69
2023/01/11 05:26:35;;;;;;;4.18;2.47;;;7.40;99.90;;;;;;5027743;28;20037;-70
2023/01/11 05:29:02;;;;;;;;;;;7.50;99.90;;;;;;5040679;28;20041;-70
2023/01/11 05:31:29;;;;;;;4.70;2.10;;;7.50;99.90;;;;;;5040289;28;19916;-70
2023/01/11 05:33:56;;;;;;;3.45;2.22;;;7.50;99.90;;;;;;5021986;28;20038;-70
2023/01/11 05:36:23;;;;;;;5.28;2.28;;;7.60;99.90;;;;;;5028676;28;20029;-70
2023/01/11 05:38:51;;;;;;;2.55;1.63;;;7.60;99.90;;;;;;5030307;28;20036;-70
2023/01/11 05:41:18;;;;;;;3.88;2.10;;;7.60;99.90;;;;;;5024339;28;20034;-69
2023/01/11 05:46:30;;;;;;;6.00;2.58;;;7.60;99.90;;;;;;5032141;28;20149;-70
2023/01/11 05:48:57;;;;;;;3.30;2.10;;;7.70;99.90;;;;;;5019356;28;20466;-70
2023/01/11 05:51:24;;;;;;;5.25;2.38;;;7.70;99.90;;;;;;5024464;28;20084;-70
2023/01/11 05:53:50;;;;;;;3.65;2.10;;;7.80;99.90;;;;;;5027732;28;20045;-70
2023/01/11 05:56:15;;;;;;;4.07;2.30;;;7.80;99.90;;;;;;5031403;28;20033;-70
2023/01/11 05:58:41;;;;;;;3.88;1.88;;;7.80;99.90;;;;;;5025397;28;20060;-70
2023/01/11 06:01:06;;;;;;;4.85;2.20;;;7.80;99.90;;;;;;5021114;28;20047;-69
2023/01/11 06:03:32;;;;;;;5.47;2.25;;;7.90;99.90;;;;;;5024570;28;20036;-70
2023/01/11 06:05:58;;;;;;;3.88;2.50;;;7.90;99.90;;;;;;5020071;28;20108;-70
2023/01/11 06:08:25;;;;;;;5.00;2.00;;;8.00;99.90;;;;;;5028473;28;20645;-70
2023/01/11 06:10:52;;;;;;;4.18;2.20;;;8.00;99.90;;;;;;5020603;28;20382;-70
2023/01/11 06:13:27;;;;;;;3.05;1.85;;;8.00;99.90;;;;;;5027430;28;20037;-70
2023/01/11 06:16:12;;;;;;;2.90;1.73;;;8.00;99.90;;;;;;5024334;28;20021;-70
2023/01/11 06:18:39;;;;;;;4.82;2.03;;;8.00;99.90;;;;;;5024993;28;20115;-70
2023/01/11 06:21:06;;;;;;;3.22;1.77;;;8.10;99.90;;;;;;5023175;28;20079;-71
2023/01/11 06:23:35;;;;;;;3.10;1.90;;;8.10;99.90;;;;;;5033036;28;20040;-70
2023/01/11 06:26:06;;;;;;;3.70;2.42;;;8.10;99.90;;;;;;5022693;28;20029;-70
2023/01/11 06:28:31;;;;;;;;;;;8.10;99.90;;;;;;5027561;28;20463;-70
2023/01/11 06:30:58;;;;;;;3.40;1.65;;;8.20;99.90;;;;;;5036954;28;19956;-70
2023/01/11 06:33:25;;;;;;;5.03;2.00;;;8.20;99.90;;;;;;5029632;28;20116;-70
2023/01/11 06:35:52;;;;;;;3.30;2.40;;;8.30;99.90;;;;;;5023166;28;20063;-71
2023/01/11 06:38:20;;;;;;;5.50;2.10;;;8.30;99.90;;;;;;5015714;28;20489;-71
2023/01/11 06:40:54;;;;;;;4.50;2.78;;;8.40;99.90;;;;;;5023013;28;20030;-71
2023/01/11 06:43:21;;;;;;;5.40;2.60;;;8.30;99.90;;;;;;5029178;28;20033;-71
2023/01/11 06:45:48;;;;;;;3.97;2.55;;;8.30;99.90;;;;;;5027993;28;20463;-71
2023/01/11 06:48:13;;;;;;;4.50;2.92;;;8.30;99.90;;;;;;5024241;28;20112;-70
2023/01/11 06:50:39;;;;;;;5.10;3.13;;;8.40;99.90;;;;;;5024266;28;20108;-71
2023/01/11 06:53:05;;;;;;;5.10;2.88;;;8.40;99.90;;;;;;5029152;28;20452;-71
2023/01/11 06:55:30;;;;;;;5.28;3.30;;;8.40;99.90;;;;;;5025576;28;20466;-71
2023/01/11 06:57:56;;;;;;;5.03;3.20;;;8.40;99.90;;;;;;5016121;28;20025;-70
2023/01/11 07:00:22;;;;;;;4.88;3.20;;;8.40;99.90;;;;;;5025758;28;20065;-71
2023/01/11 07:02:48;;;;;;;6.10;3.85;;;8.40;99.90;;;;;;5023966;28;20033;-70
2023/01/11 07:05:13;;;;;;;8.45;3.47;;;8.40;99.90;;;;;;5025346;28;20044;-71
2023/01/11 07:07:40;;;;;;;4.70;3.28;;;8.50;99.90;;;;;;5029354;28;20065;-70
2023/01/11 07:10:08;;;;;;;4.25;3.10;;;8.50;99.90;;;;;;5029928;28;20084;-70
2023/01/11 07:12:35;;;;;;;4.40;2.95;;;8.50;99.90;;;;;;5020375;28;20068;-70
2023/01/11 07:15:02;;;;;;;6.50;3.70;;;8.50;99.90;;;;;;5022771;28;20034;-70
2023/01/11 07:17:27;;;;;;;7.97;3.92;;;8.50;99.90;;;;;;5026278;28;20037;-71
2023/01/11 07:19:53;;;;;;;6.45;3.47;;;8.50;99.90;;;;;;5024571;28;20029;-70
2023/01/11 07:22:21;;;;;;;6.95;3.70;;;8.50;99.90;;;;;;5028208;28;20060;-70
2023/01/11 07:24:47;;;;;;;6.03;3.85;;;8.60;99.90;;;;;;5024364;28;20047;-71
2023/01/11 07:27:12;;;;;;;6.15;4.38;;;8.60;99.90;;;;;;5028913;28;20113;-71
2023/01/11 07:29:38;;;;;;;7.43;4.55;;;8.60;99.90;;;;;;5027289;28;20113;-71
2023/01/11 07:32:03;;;;;;;6.82;4.53;;;8.60;99.90;;;;;;5022894;28;20029;-71
2023/01/11 07:34:29;;;;;;;7.65;4.95;;;8.60;99.90;;;;;;5019862;28;20428;-71
2023/01/11 07:36:54;;;;;;;6.68;4.80;;;8.60;99.90;;;;;;5028967;28;20057;-71
2023/01/11 07:39:20;;;;;;;6.68;4.95;;;8.70;99.90;;;;;;5030831;28;20088;-70
2023/01/11 07:44:29;;;;;;;7.13;4.97;;;8.60;99.90;;;;;;5026605;28;20040;-70
2023/01/11 07:46:55;;;;;;;7.72;5.30;;;8.60;99.90;;;;;;5029983;28;20030;-72
2023/01/11 07:49:20;;;;;;;9.73;6.03;;;8.70;99.90;;;;;;5025415;28;20120;-72
2023/01/11 07:51:46;;;;;;;9.05;5.95;;;8.70;99.90;;;;;;5031065;28;20688;-72
2023/01/11 07:54:11;;;;;;;9.25;5.88;;;8.70;99.90;;;;;;5030797;28;20033;-75
2023/01/11 07:56:37;;;;;;;10.07;5.65;;;8.70;99.90;;;;;;5032711;28;20529;-72
2023/01/11 07:59:02;;;;;;;9.93;6.38;;;8.80;99.90;;;;;;5015401;28;20032;-71
2023/01/11 08:01:28;;;;;;;10.25;6.95;;;8.80;99.90;;;;;;5022341;28;20462;-72
2023/01/11 08:03:53;;;;;;;11.48;7.25;;;8.80;99.90;;;;;;5022570;28;20025;-71
2023/01/11 08:06:19;;;;;;;9.55;6.53;;;8.70;99.90;;;;;;5019235;28;20475;-72
2023/01/11 08:08:44;;;;;;;9.18;6.68;;;8.80;99.90;;;;;;5032334;28;20112;-71
2023/01/11 08:16:38;;;;;;;10.45;6.88;;;8.80;99.90;;;;;;5034007;28;20052;-72
2023/01/11 08:19:04;;;;;;;11.35;7.47;;;8.80;99.90;;;;;;5029878;28;20506;-72
2023/01/11 08:21:30;;;;;;;11.73;8.07;;;8.80;99.90;;;;;;5031397;28;20061;-72
2023/01/11 08:23:57;;;;;;;10.73;7.07;;;8.80;99.90;;;;;;5032385;28;20029;-72
2023/01/11 08:26:24;;;;;;;12.88;7.18;;;8.80;99.90;;;;;;5034034;28;20033;-72
2023/01/11 08:28:49;;;;;;;11.23;7.45;;;8.80;99.90;;;;;;5032494;28;20103;-72
2023/01/11 08:31:15;;;;;;;12.55;8.18;;;8.90;99.90;;;;;;5033612;28;20475;-72
2023/01/11 08:33:41;;;;;;;11.63;7.50;;;8.90;99.90;;;;;;5028252;28;20029;-72
2023/01/11 08:36:09;;;;;;;11.95;7.30;;;8.90;99.90;;;;;;5019226;28;20049;-72
2023/01/11 08:38:34;;;;;;;11.95;7.13;;;8.90;99.90;;;;;;5032781;28;20029;-72
2023/01/11 08:41:01;;;;;;;14.15;8.15;;;8.90;99.90;;;;;;5034070;28;20056;-72
2023/01/11 08:43:27;;;;;;;12.15;8.07;;;8.90;99.90;;;;;;5032998;28;20092;-72
2023/01/11 08:45:52;;;;;;;13.27;8.15;;;8.90;99.90;;;;;;5030361;28;20025;-72
2023/01/11 08:48:18;;;;;;;7.97;5.40;;;8.90;99.90;;;;;;5032916;28;20071;-72
2023/01/11 08:50:43;;;;;;;10.93;4.95;;;8.80;99.90;;;;;;5029505;28;20033;-72
2023/01/11 08:53:10;;;;;;;7.03;4.20;;;8.80;99.90;;;;;;5030666;28;20067;-72
2023/01/11 08:55:35;;;;;;;6.38;3.35;;;8.80;99.90;;;;;;5032485;28;20061;-72
2023/01/11 08:58:01;;;;;;;7.13;2.65;;;8.80;99.90;;;;;;5033458;28;20064;-72
2023/01/11 09:00:26;;;;;;;6.40;2.38;;;8.70;99.90;;;;;;5023086;28;20067;-72
2023/01/11 09:02:52;;;;;;;7.32;2.40;;;8.70;99.90;;;;;;5031480;28;20066;-72
2023/01/11 09:05:17;;;;;;;6.35;2.55;;;8.60;99.90;;;;;;5027706;28;20049;-72
2023/01/11 09:07:43;;;;;;;9.10;2.38;;;8.60;99.90;;;;;;5024395;28;20041;-72
2023/01/11 09:10:09;;;;;;;8.48;2.22;;;8.60;99.90;;;;;;5031145;28;20487;-72
2023/01/11 09:12:34;;;;;;;3.85;2.40;;;8.60;99.90;;;;;;5032807;28;20025;-72
2023/01/11 09:15:00;;;;;;;4.80;2.30;;;8.70;99.90;;;;;;5032268;28;20021;-72
2023/01/11 09:17:25;;;;;;;5.35;2.80;;;8.70;99.90;;;;;;5030686;28;20504;-72
2023/01/11 09:19:51;;;;;;;10.57;3.20;;;8.60;99.90;;;;;;5027290;28;20037;-72
2023/01/11 09:22:17;;;;;;;8.80;3.05;;;8.60;99.90;;;;;;5029890;28;20106;-72
2023/01/11 09:24:43;;;;;;;5.10;2.10;;;8.60;99.90;;;;;;5032461;28;20116;-72
2023/01/11 09:27:10;;;;;;;5.68;2.25;;;8.60;99.90;;;;;;5032093;28;20475;-72
2023/01/11 09:29:36;;;;;;;7.88;2.30;;;8.60;99.90;;;;;;5032035;28;20078;-72
2023/01/11 09:32:01;;;;;;;6.35;2.10;;;8.60;99.90;;;;;;5038404;28;20033;-72
2023/01/11 09:34:27;;;;;;;13.43;2.50;;;8.60;99.90;;;;;;5026121;28;20033;-72
2023/01/11 09:36:54;;;;;;;6.15;2.03;;;8.60;99.90;;;;;;5027163;28;20037;-72
2023/01/11 09:39:23;;;;;;;32.50;15.27;;;8.60;99.90;;;;;;5029359;28;20892;-72
2023/01/11 09:42:23;;;;;;;51.45;21.15;;;8.60;99.90;;;;;;5032988;28;20079;-72
2023/01/11 09:45:04;;;;;;;26.27;13.32;;;8.50;99.90;;;;;;5028026;28;20517;-72
2023/01/11 09:47:42;;;;;;;10.27;4.05;;;8.50;99.90;;;;;;5032161;28;20535;-72
2023/01/11 09:50:25;;;;;;;5.60;2.30;;;8.40;99.90;;;;;;5026620;28;20032;-72
2023/01/11 09:52:55;;;;;;;7.70;2.03;;;8.50;99.90;;;;;;5022351;28;20029;-72
2023/01/11 09:55:30;;;;;;;10.27;2.33;;;8.40;99.90;;;;;;5032225;28;20535;-72
2023/01/11 09:58:21;;;;;;;6.72;1.88;;;8.40;99.90;;;;;;5031789;28;20100;-72
2023/01/11 10:01:09;;;;;;;7.57;1.63;;;8.40;99.90;;;;;;5029384;28;20042;-72
2023/01/11 10:03:53;;;;;;;6.93;1.70;;;8.40;99.90;;;;;;5026167;28;20477;-72
2023/01/11 10:06:44;;;;;;;6.50;1.48;;;8.40;99.90;;;;;;5021669;28;20033;-73
2023/01/11 10:09:24;;;;;;;6.65;1.40;;;8.30;99.90;;;;;;5020978;28;20068;-72
2023/01/11 10:12:13;;;;;;;6.57;1.50;;;8.30;99.90;;;;;;5027963;28;20069;-72
2023/01/11 10:15:12;;;;;;;7.60;1.60;;;8.40;99.90;;;;;;5030554;28;20120;-73
2023/01/11 10:17:55;;;;;;;8.23;1.30;;;8.40;99.90;;;;;;5021676;28;20135;-72
2023/01/11 10:20:36;;;;;;;5.80;1.60;;;8.40;99.90;;;;;;5023431;28;20037;-72
2023/01/11 10:23:10;;;;;;;7.38;1.50;;;8.50;99.90;;;;;;5028717;28;20053;-72
2023/01/11 10:25:47;;;;;;;4.10;1.35;;;8.50;99.90;;;;;;5030137;28;20510;-72
2023/01/11 10:28:34;;;;;;;13.50;7.65;;;8.50;99.90;;;;;;5022715;28;20129;-72
2023/01/11 10:31:25;;;;;;;7.90;3.80;;;8.40;99.90;;;;;;5024110;28;20033;-73
2023/01/11 10:37:15;;;;;;;7.65;2.95;;;8.40;99.90;;;;;;5025723;28;20072;-73
2023/01/11 10:40:30;;;;;;;17.85;8.35;;;8.40;99.90;;;;;;5027561;28;20033;-72
2023/01/11 10:43:11;;;;;;;7.25;2.10;;;8.40;99.90;;;;;;5030454;28;20488;-73
2023/01/11 10:45:49;;;;;;;10.27;5.60;;;8.40;99.90;;;;;;5029911;28;20042;-73
2023/01/11 10:48:28;;;;;;;11.75;4.78;;;8.40;99.90;;;;;;5026466;28;20482;-72
2023/01/11 10:51:16;;;;;;;9.95;3.58;;;8.40;99.90;;;;;;5027591;28;20446;-73
2023/01/11 10:54:12;;;;;;;10.27;2.83;;;8.50;99.90;;;;;;5028820;28;20022;-73
2023/01/11 10:56:57;;;;;;;8.07;2.00;;;8.50;99.90;;;;;;5023697;28;20030;-72
2023/01/11 10:59:52;;;;;;;4.40;1.73;;;8.50;99.90;;;;;;5029291;28;20461;-73
2023/01/11 11:02:39;;;;;;;5.97;1.70;;;8.50;99.90;;;;;;5030291;28;20037;-72
2023/01/11 11:05:25;;;;;;;9.65;1.80;;;8.50;99.90;;;;;;5019220;28;20465;-73
2023/01/11 11:07:57;;;;;;;5.85;2.15;;;8.50;99.90;;;;;;5019586;28;20183;-72
2023/01/11 11:10:31;;;;;;;9.48;1.92;;;8.50;99.90;;;;;;5027464;28;20059;-72
2023/01/11 11:13:11;;;;;;;5.88;1.92;;;8.50;99.90;;;;;;5029435;28;20377;-72
2023/01/11 11:15:39;;;;;;;9.02;3.47;;;8.50;99.90;;;;;;5030857;28;20029;-72
2023/01/11 11:18:05;;;;;;;10.15;1.98;;;8.50;99.90;;;;;;5030190;28;20040;-73
2023/01/11 11:20:33;;;;;;;9.50;2.40;;;8.50;99.90;;;;;;5016882;28;20037;-72
2023/01/11 11:22:59;;;;;;;8.07;2.00;;;8.50;99.90;;;;;;4993618;28;1004895;-72
2023/01/11 11:25:28;;;;;;;6.45;1.98;;;8.50;99.90;;;;;;5031291;28;20022;-72
2023/01/11 11:28:03;;;;;;;7.07;2.20;;;8.60;99.90;;;;;;5029209;28;20131;-73
2023/01/11 11:30:42;;;;;;;4.40;1.75;;;8.60;99.90;;;;;;5021639;28;20437;-73
2023/01/11 11:33:30;;;;;;;10.68;2.45;;;8.60;99.90;;;;;;5027347;28;20085;-73
2023/01/11 11:35:58;;;;;;;13.98;5.63;;;8.60;99.90;;;;;;5018796;28;20042;-73
2023/01/11 11:38:29;;;;;;;17.70;8.10;;;8.60;99.90;;;;;;5024622;28;20018;-73
2023/01/11 11:40:58;;;;;;;16.27;9.15;;;8.60;99.90;;;;;;5030888;28;20112;-73
2023/01/11 11:43:25;;;;;;;19.98;11.43;;;8.60;99.90;;;;;;5031034;28;20034;-73
2023/01/11 11:46:03;;;;;;;68.22;40.38;;;8.60;99.90;;;;;;5030364;28;20018;-73
2023/01/11 11:48:31;;;;;;;12.45;7.13;;;8.60;99.90;;;;;;5026447;28;20095;-73
2023/01/11 11:51:03;;;;;;;7.30;3.22;;;8.60;99.90;;;;;;5029451;28;20528;-73
2023/01/11 11:53:32;;;;;;;7.95;2.40;;;8.60;99.90;;;;;;5029212;28;20057;-73
2023/01/11 11:56:04;;;;;;;10.20;3.10;;;8.60;99.90;;;;;;5030458;28;20045;-72
2023/01/11 11:58:30;;;;;;;13.77;4.93;;;8.60;99.90;;;;;;5028314;28;20041;-73
2023/01/11 12:00:55;;;;;;;17.77;9.30;;;8.60;99.90;;;;;;5029981;28;20029;-72
2023/01/11 12:03:23;;;;;;;8.73;2.95;;;8.60;99.90;;;;;;5022903;28;20083;-73
2023/01/11 12:05:54;;;;;;;6.32;2.42;;;8.60;99.90;;;;;;5027497;28;20021;-72
2023/01/11 12:08:23;;;;;;;12.95;2.38;;;8.60;99.90;;;;;;5028471;28;20030;-73
2023/01/11 12:10:58;;;;;;;10.60;2.28;;;8.60;99.90;;;;;;5019444;28;20030;-72
2023/01/11 12:13:27;;;;;;;9.80;2.97;;;8.60;99.90;;;;;;5030240;28;20440;-72
2023/01/11 12:15:58;;;;;;;9.95;3.35;;;8.60;99.90;;;;;;5027272;28;20032;-73
2023/01/11 12:18:31;;;;;;;11.25;4.43;;;8.60;99.90;;;;;;5026393;28;20095;-73
2023/01/11 12:21:18;;;;;;;16.10;4.93;;;8.60;99.90;;;;;;5028428;28;20026;-73
2023/01/11 12:23:43;;;;;;;9.40;4.95;;;8.70;99.90;;;;;;5020430;28;20405;-73
2023/01/11 12:26:30;;;;;;;10.00;3.45;;;8.70;99.90;;;;;;5033947;28;20034;-73
2023/01/11 12:29:14;;;;;;;13.18;3.42;;;8.80;99.90;;;;;;5030872;28;20021;-73
2023/01/11 12:32:06;;;;;;;8.35;3.50;;;8.70;99.90;;;;;;5032197;28;20040;-73
2023/01/11 12:34:50;;;;;;;7.60;3.78;;;8.70;99.90;;;;;;5023605;28;20564;-73
2023/01/11 12:37:42;;;;;;;8.05;3.72;;;8.80;99.90;;;;;;5021689;28;20108;-73
2023/01/11 12:40:15;;;;;;;12.45;4.07;;;8.80;99.90;;;;;;5021648;28;20045;-73
2023/01/11 12:43:11;;;;;;;8.80;3.70;;;8.80;99.90;;;;;;5031888;28;20120;-73
2023/01/11 12:45:52;;;;;;;10.23;3.40;;;8.80;99.90;;;;;;5027527;28;20033;-73
2023/01/11 12:48:27;;;;;;;11.32;3.75;;;8.80;99.90;;;;;;5039122;28;20041;-73
2023/01/11 12:51:27;;;;;;;13.82;4.15;;;8.80;99.90;;;;;;5031926;28;20390;-73
2023/01/11 12:54:17;;;;;;;12.98;4.28;;;8.80;99.90;;;;;;5028252;28;20036;-73
2023/01/11 12:57:02;;;;;;;11.38;4.07;;;8.80;99.90;;;;;;5032449;28;20038;-73
2023/01/11 12:59:36;;;;;;;9.43;4.18;;;8.80;99.90;;;;;;5025224;28;20465;-73
2023/01/11 13:02:21;;;;;;;13.65;4.35;;;8.80;99.90;;;;;;5024626;28;20445;-73
2023/01/11 13:05:15;;;;;;;9.27;4.07;;;8.80;99.90;;;;;;5021623;28;20437;-73
2023/01/11 13:08:00;;;;;;;10.68;4.50;;;8.90;99.90;;;;;;5023318;28;20041;-73
2023/01/11 13:10:58;;;;;;;12.85;4.80;;;9.00;99.90;;;;;;5033512;28;20151;-73
2023/01/11 13:13:34;;;;;;;11.40;4.47;;;9.10;99.90;;;;;;5021838;28;20357;-73
2023/01/11 13:16:10;;;;;;;12.25;4.65;;;9.50;99.90;;;;;;5024509;28;20028;-73
2023/01/11 13:19:00;;;;;;;13.88;4.47;;;9.70;99.90;;;;;;5026818;28;20064;-73
2023/01/11 13:21:31;;;;;;;14.57;3.97;;;9.80;99.50;;;;;;5030595;28;20473;-73
2023/01/11 13:24:25;;;;;;;15.05;3.97;;;9.70;99.10;;;;;;5031261;28;20038;-73
2023/01/11 13:26:53;;;;;;;7.90;3.60;;;9.60;98.90;;;;;;5028019;28;20037;-73
2023/01/11 13:29:27;;;;;;;17.50;3.83;;;9.50;98.30;;;;;;5029160;28;20045;-73
2023/01/11 13:31:56;;;;;;;15.43;3.33;;;9.40;98.40;;;;;;5032087;28;20045;-73
2023/01/11 13:34:30;;;;;;;13.02;3.55;;;9.30;97.70;;;;;;5026328;28;20425;-73
2023/01/11 13:37:11;;;;;;;9.70;3.30;;;9.20;98.00;;;;;;5028922;28;20795;-73
2023/01/11 13:39:44;;;;;;;15.05;3.38;;;9.20;98.00;;;;;;5025831;28;20040;-73
2023/01/11 13:42:28;;;;;;;11.52;3.42;;;9.20;97.90;;;;;;5029614;28;20107;-73
2023/01/11 13:45:37;;;;;;;9.13;3.00;;;9.10;97.80;;;;;;5027029;28;20041;-72
2023/01/11 13:48:19;;;;;;;9.98;3.00;;;9.10;97.50;;;;;;5024318;28;20125;-72